Time;durP1;ratioP1;P1;durP2;ratioP2;P2;SDS_P1;SDS_P2;PMS_P1;PMS_P2;Temp;Humidity;BMP_temperature;BMP_pressure;BME280_temperature;BME280_humidity;BME280_pressure;Samples;Min_cycle;Max_cycle;Signal;HPM_P1;HPM_P2
2023/09/25 00:00:31;;;;;;;4.18;2.63;;;;;;;21.75;47.91;99717.53;5092794;28;20032;-74
2023/09/25 00:02:58;;;;;;;4.10;2.35;;;;;;;21.77;47.83;99712.97;5093951;28;20499;-74
2023/09/25 00:05:24;;;;;;;4.40;2.42;;;;;;;21.75;47.84;99712.22;5094150;28;20024;-74
2023/09/25 00:07:49;;;;;;;4.50;2.40;;;;;;;21.75;47.62;99712.22;5093939;28;20031;-74
2023/09/25 00:10:15;;;;;;;4.50;2.70;;;;;;;21.73;47.84;99715.81;5094063;28;20025;-74
2023/09/25 00:12:40;;;;;;;4.55;2.70;;;;;;;21.73;47.62;99715.81;5092449;28;20398;-75
2023/09/25 00:15:06;;;;;;;4.00;2.53;;;;;;;21.73;47.53;99720.28;5094036;28;20026;-75
2023/09/25 00:17:32;;;;;;;4.25;2.25;;;;;;;21.70;47.86;99721.31;5094074;28;20024;-75
2023/09/25 00:19:58;;;;;;;4.35;2.38;;;;;;;21.69;47.72;99724.88;5093738;28;20024;-74
2023/09/25 00:22:24;;;;;;;4.47;2.63;;;;;;;21.71;47.86;99716.88;5093872;28;20032;-74
2023/09/25 00:24:49;;;;;;;5.20;2.85;;;;;;;21.68;47.75;99723.19;5093752;28;20028;-75
2023/09/25 00:27:15;;;;;;;4.32;2.67;;;;;;;21.68;47.89;99723.19;5093719;28;20103;-74
2023/09/25 00:29:40;;;;;;;4.07;2.47;;;;;;;21.69;47.84;99719.56;5093878;28;20398;-75
2023/09/25 00:32:05;;;;;;;4.53;2.80;;;;;;;21.70;47.89;99725.78;5093801;28;20460;-74
2023/09/25 00:34:31;;;;;;;4.50;2.35;;;;;;;21.69;47.82;99726.69;5092312;28;20035;-75
2023/09/25 00:36:57;;;;;;;4.68;2.92;;;;;;;21.68;47.81;99728.50;5093620;28;20028;-74
2023/09/25 00:39:22;;;;;;;5.15;2.63;;;;;;;21.67;47.92;99724.13;5093383;28;20494;-75
2023/09/25 00:41:48;;;;;;;4.22;2.33;;;;;;;21.67;48.08;99726.78;5092990;28;20035;-74
2023/09/25 00:44:14;;;;;;;3.72;2.30;;;;;;;21.67;47.90;99732.09;5093539;28;20031;-74
2023/09/25 00:46:39;;;;;;;3.88;2.53;;;;;;;21.69;48.13;99739.97;5093021;28;20390;-75
2023/09/25 00:49:05;;;;;;;4.35;2.47;;;;;;;21.67;48.04;99737.41;5092766;28;20110;-75
2023/09/25 00:51:30;;;;;;;4.03;2.33;;;;;;;21.67;48.09;99736.53;5093319;28;20085;-74
2023/09/25 00:53:56;;;;;;;4.28;2.55;;;;;;;21.65;47.97;99733.13;5093372;28;20024;-74
2023/09/25 00:56:22;;;;;;;4.40;2.55;;;;;;;21.65;48.10;99728.66;5092835;28;20387;-74
2023/09/25 00:58:48;;;;;;;4.10;2.55;;;;;;;21.64;47.97;99737.56;5093383;28;20034;-73
2023/09/25 01:01:13;;;;;;;3.85;2.22;;;;;;;21.65;47.79;99730.47;5092152;28;20437;-75
2023/09/25 01:03:40;;;;;;;4.22;2.60;;;;;;;21.64;47.93;99734.91;5106635;28;20048;-75
2023/09/25 01:06:05;;;;;;;4.03;2.35;;;;;;;21.65;47.73;99728.66;5092899;28;20491;-75
2023/09/25 01:08:31;;;;;;;4.57;2.50;;;;;;;21.65;47.64;99733.13;5093091;28;20035;-75
2023/09/25 01:10:58;;;;;;;4.20;2.50;;;;;;;21.65;47.84;99739.28;5092730;28;20383;-74
2023/09/25 01:13:24;;;;;;;4.40;2.40;;;;;;;21.62;47.82;99743.91;5093108;28;20024;-74
2023/09/25 01:15:50;;;;;;;3.40;2.00;;;;;;;21.62;47.81;99744.78;5093010;28;20085;-75
2023/09/25 01:18:15;;;;;;;3.95;2.22;;;;;;;21.61;47.82;99748.41;5092963;28;20032;-75
2023/09/25 01:20:40;;;;;;;4.13;2.25;;;;;;;21.61;47.48;99745.75;5092848;28;20506;-75
2023/09/25 01:23:07;;;;;;;3.95;2.15;;;;;;;21.62;47.59;99754.53;5092658;28;20028;-75
2023/09/25 01:25:32;;;;;;;4.15;2.45;;;;;;;21.60;47.61;99747.53;5092508;28;20033;-74
2023/09/25 01:27:57;;;;;;;4.50;2.72;;;;;;;21.59;47.48;99758.22;5100542;28;20019;-74
2023/09/25 01:30:23;;;;;;;3.63;2.13;;;;;;;21.58;47.82;99753.88;5112975;28;20027;-75
2023/09/25 01:32:50;;;;;;;4.45;2.58;;;;;;;21.57;47.69;99752.16;5094278;28;20361;-74
2023/09/25 01:35:17;;;;;;;4.22;2.40;;;;;;;21.57;47.64;99752.16;5092746;28;20047;-75
2023/09/25 01:37:43;;;;;;;4.40;2.40;;;;;;;21.55;47.52;99746.09;5092608;28;20032;-75
2023/09/25 01:40:17;;;;;;;4.20;2.30;;;;;;;21.55;47.54;99754.06;5091747;28;20028;-75
2023/09/25 01:42:47;;;;;;;4.63;2.65;;;;;;;21.55;47.53;99749.59;5091991;28;20028;-74
2023/09/25 01:45:16;;;;;;;3.80;2.33;;;;;;;21.55;47.66;99746.09;5092370;28;20106;-74
2023/09/25 01:47:42;;;;;;;3.67;2.20;;;;;;;21.54;47.54;99747.03;5092445;28;20111;-75
2023/09/25 01:50:10;;;;;;;4.20;2.45;;;;;;;21.53;47.61;99745.31;5092251;28;20031;-74
2023/09/25 01:52:35;;;;;;;3.70;2.00;;;;;;;21.52;47.61;99748.94;5092524;28;20024;-75
2023/09/25 01:55:01;;;;;;;3.92;2.30;;;;;;;21.52;47.60;99762.19;5091957;28;20486;-74
2023/09/25 01:57:27;;;;;;;4.70;2.53;;;;;;;21.52;47.39;99764.84;5092230;28;20034;-75
2023/09/25 01:59:52;;;;;;;3.85;1.98;;;;;;;21.50;47.57;99766.75;5091921;28;20024;-75
2023/09/25 02:02:17;;;;;;;3.65;2.13;;;;;;;21.45;47.52;99762.56;5091861;28;20020;-74
2023/09/25 02:04:43;;;;;;;4.47;2.70;;;;;;;21.47;47.62;99778.41;5092375;28;20036;-75
2023/09/25 02:07:08;;;;;;;4.40;2.42;;;;;;;21.48;47.67;99782.78;5092115;28;20044;-74
2023/09/25 02:09:34;;;;;;;4.60;2.65;;;;;;;21.44;47.60;99776.78;5091907;28;20091;-74
2023/09/25 02:11:59;;;;;;;4.18;2.40;;;;;;;21.46;47.69;99777.53;5091993;28;20077;-75
2023/09/25 02:14:25;;;;;;;4.25;2.17;;;;;;;21.44;47.59;99774.13;5090930;28;20024;-75
2023/09/25 02:16:51;;;;;;;3.83;2.10;;;;;;;21.42;47.66;99770.72;5092234;28;20024;-75
2023/09/25 02:19:17;;;;;;;3.70;2.00;;;;;;;21.44;47.66;99762.66;5091918;28;20012;-74
2023/09/25 02:21:42;;;;;;;3.97;2.20;;;;;;;21.42;47.58;99760.09;5090769;28;20031;-74
2023/09/25 02:24:07;;;;;;;4.03;2.20;;;;;;;21.42;47.75;99760.09;5091690;28;20020;-75
2023/09/25 02:26:33;;;;;;;4.15;2.28;;;;;;;21.40;47.81;99756.66;5091939;28;20613;-74
2023/09/25 02:28:58;;;;;;;3.65;2.10;;;;;;;21.41;47.74;99755.72;5092116;28;20028;-75
2023/09/25 02:31:23;;;;;;;4.07;2.28;;;;;;;21.41;47.55;99758.38;5091606;28;20087;-75
2023/09/25 02:33:49;;;;;;;4.90;2.58;;;;;;;21.42;47.64;99754.78;5091730;28;20024;-74
2023/09/25 02:36:15;;;;;;;4.28;2.28;;;;;;;21.41;47.60;99757.53;5091973;28;20102;-75
2023/09/25 02:38:40;;;;;;;4.28;2.42;;;;;;;21.39;47.81;99754.97;5091409;28;20028;-74
2023/09/25 02:41:06;;;;;;;3.92;2.15;;;;;;;21.38;47.73;99747.94;5091798;28;20025;-75
2023/09/25 02:43:31;;;;;;;3.38;2.03;;;;;;;21.38;47.68;99747.94;5091841;28;20065;-75
2023/09/25 02:45:56;;;;;;;3.65;1.85;;;;;;;21.36;47.72;99744.50;5091972;28;20030;-74
2023/09/25 02:48:22;;;;;;;4.78;2.60;;;;;;;21.36;47.28;99751.63;5091730;28;20025;-75
2023/09/25 02:50:49;;;;;;;3.95;2.25;;;;;;;21.34;47.65;99746.41;5091916;28;20027;-76
2023/09/25 02:53:15;;;;;;;3.50;2.10;;;;;;;21.34;47.63;99751.72;5091166;28;20024;-75
2023/09/25 02:55:41;;;;;;;4.32;2.28;;;;;;;21.32;47.73;99754.44;5091800;28;20020;-74
2023/09/25 02:58:07;;;;;;;3.38;2.00;;;;;;;21.32;47.63;99750.97;5091746;28;20024;-75
2023/09/25 03:00:32;;;;;;;3.72;2.28;;;;;;;21.32;47.71;99764.22;5091745;28;20439;-75
2023/09/25 03:02:58;;;;;;;4.13;2.20;;;;;;;21.30;47.61;99760.78;5091229;28;20044;-74
2023/09/25 03:05:24;;;;;;;3.20;1.90;;;;;;;21.31;47.47;99762.53;5091450;28;20035;-75
2023/09/25 03:07:49;;;;;;;4.07;2.20;;;;;;;21.32;47.68;99758.91;5091649;28;20024;-75
2023/09/25 03:10:15;;;;;;;3.63;2.15;;;;;;;21.29;47.54;99764.38;5091803;28;20178;-75
2023/09/25 03:12:40;;;;;;;4.05;2.38;;;;;;;21.30;47.85;99766.09;5095421;28;20020;-75
2023/09/25 03:15:06;;;;;;;4.80;2.33;;;;;;;21.29;47.78;99759.94;5095424;28;20433;-74
2023/09/25 03:17:32;;;;;;;3.90;2.20;;;;;;;21.26;47.61;99769.88;5095027;28;20059;-74
2023/09/25 03:19:58;;;;;;;3.95;2.25;;;;;;;21.28;47.66;99766.22;5099714;28;20045;-75
2023/09/25 03:22:23;;;;;;;3.17;1.83;;;;;;;21.27;47.68;99776.91;5102040;28;20020;-75
2023/09/25 03:24:49;;;;;;;4.15;2.30;;;;;;;21.25;47.74;99773.50;5094949;28;20028;-75
2023/09/25 03:27:16;;;;;;;3.80;2.10;;;;;;;21.25;47.72;99771.69;5094920;28;20024;-75
2023/09/25 03:29:42;;;;;;;3.85;2.20;;;;;;;21.27;47.83;99779.56;5094963;28;20111;-75
2023/09/25 03:32:07;;;;;;;4.22;2.28;;;;;;;21.24;47.79;99777.94;5094860;28;20100;-74
2023/09/25 03:34:32;;;;;;;3.67;2.15;;;;;;;21.27;47.70;99774.25;5094424;28;20027;-75
2023/09/25 03:36:58;;;;;;;3.92;2.33;;;;;;;21.24;47.87;99772.63;5094772;28;20023;-75
2023/09/25 03:39:23;;;;;;;3.45;1.95;;;;;;;21.25;47.81;99781.47;5094666;28;20543;-75
2023/09/25 03:41:49;;;;;;;3.58;2.08;;;;;;;21.24;47.56;99782.38;5094524;28;20016;-74
2023/09/25 03:44:14;;;;;;;3.42;2.15;;;;;;;21.24;47.63;99771.75;5094530;28;20422;-75
2023/09/25 03:46:40;;;;;;;3.35;1.75;;;;;;;21.23;47.64;99780.66;5094937;28;20103;-75
2023/09/25 03:49:08;;;;;;;4.03;2.10;;;;;;;21.22;47.79;99779.81;5094228;28;20021;-75
2023/09/25 03:51:33;;;;;;;3.92;2.20;;;;;;;21.22;47.53;99773.66;5094322;28;20415;-75
2023/09/25 03:53:59;;;;;;;3.42;1.92;;;;;;;21.22;47.69;99778.97;5094623;28;20039;-75
2023/09/25 03:56:25;;;;;;;5.47;2.13;;;;;;;21.19;47.81;99783.50;5094584;28;20031;-75
2023/09/25 03:58:51;;;;;;;3.58;1.92;;;;;;;21.18;47.78;99787.13;5094382;28;20053;-75
2023/09/25 04:01:17;;;;;;;3.67;2.10;;;;;;;21.19;47.65;99791.47;5094244;28;20016;-74
2023/09/25 04:03:42;;;;;;;3.75;1.98;;;;;;;21.18;47.72;99780.94;5093566;28;20036;-75
2023/09/25 04:06:08;;;;;;;3.72;1.92;;;;;;;21.18;47.74;99784.47;5094062;28;20020;-74
2023/09/25 04:08:34;;;;;;;4.18;2.28;;;;;;;21.17;47.79;99792.50;5094344;28;20060;-74
2023/09/25 04:10:59;;;;;;;3.38;1.95;;;;;;;21.18;47.85;99791.56;5093993;28;20535;-75
2023/09/25 04:13:26;;;;;;;4.50;2.30;;;;;;;21.19;47.86;99791.47;5094302;28;20479;-75
2023/09/25 04:15:52;;;;;;;3.70;2.00;;;;;;;21.23;47.72;99791.28;5094028;28;20043;-75
2023/09/25 04:18:18;;;;;;;3.65;1.95;;;;;;;21.24;47.91;99795.63;5093868;28;20074;-75
2023/09/25 04:20:44;;;;;;;3.60;1.98;;;;;;;21.24;47.55;99790.34;5093995;28;20495;-75
2023/09/25 04:23:10;;;;;;;3.38;1.95;;;;;;;21.22;47.59;99795.75;5093892;28;20024;-75
2023/09/25 04:25:35;;;;;;;3.40;1.73;;;;;;;21.17;47.73;99796.00;5093825;28;20180;-75
2023/09/25 04:28:00;;;;;;;3.75;1.88;;;;;;;21.19;47.70;99806.53;5093716;28;20023;-74
2023/09/25 04:30:27;;;;;;;3.35;2.00;;;;;;;21.16;47.77;99798.75;5093665;28;20021;-75
2023/09/25 04:32:56;;;;;;;3.50;2.00;;;;;;;21.16;47.63;99802.25;5093426;28;20345;-74
2023/09/25 04:35:23;;;;;;;3.13;1.90;;;;;;;21.15;47.56;99799.66;5093861;28;20020;-75
2023/09/25 04:37:48;;;;;;;3.53;1.98;;;;;;;21.13;47.72;99797.13;5093547;28;20111;-74
2023/09/25 04:40:30;;;;;;;3.25;1.90;;;;;;;21.14;47.54;99803.28;5073449;28;20108;-74
2023/09/25 04:42:57;;;;;;;4.13;2.10;;;;;;;21.11;47.53;99796.34;5073364;28;20431;-74
2023/09/25 04:45:23;;;;;;;3.22;1.85;;;;;;;21.11;47.66;99795.50;5091347;28;20483;-74
2023/09/25 04:47:53;;;;;;;3.70;2.20;;;;;;;21.12;47.43;99799.84;5093245;28;20036;-75
2023/09/25 04:50:23;;;;;;;4.60;2.05;;;;;;;21.09;47.65;99794.72;5093293;28;20030;-75
2023/09/25 04:52:49;;;;;;;3.78;1.85;;;;;;;21.09;47.53;99797.38;5092118;28;20064;-75
2023/09/25 04:55:15;;;;;;;6.13;2.35;;;;;;;21.09;47.59;99798.22;5093245;28;20055;-75
2023/09/25 04:57:42;;;;;;;3.55;1.90;;;;;;;21.08;47.70;99804.50;5093341;28;20032;-74
2023/09/25 05:02:45;;;;;;;3.90;2.20;;;;;;;21.10;47.58;99807.91;5092795;28;20044;-75
2023/09/25 05:05:11;;;;;;;3.65;1.95;;;;;;;21.09;47.53;99814.16;5093074;28;20055;-75
2023/09/25 05:07:36;;;;;;;3.10;2.03;;;;;;;21.09;47.40;99806.19;5093132;28;20062;-74
2023/09/25 05:10:02;;;;;;;3.83;1.90;;;;;;;21.10;47.39;99813.22;5093004;28;20620;-74
2023/09/25 05:12:29;;;;;;;4.07;2.10;;;;;;;21.10;47.62;99805.25;5093006;28;20062;-74
2023/09/25 05:14:55;;;;;;;3.47;2.10;;;;;;;21.11;47.38;99804.31;5092897;28;20067;-75
2023/09/25 05:17:21;;;;;;;3.63;2.17;;;;;;;21.14;47.60;99814.75;5092832;28;20028;-74
2023/09/25 05:19:46;;;;;;;3.30;1.85;;;;;;;21.17;47.35;99825.19;5092826;28;20069;-75
2023/09/25 05:22:12;;;;;;;3.60;2.10;;;;;;;21.17;47.32;99814.56;5092602;28;20027;-75
2023/09/25 05:24:38;;;;;;;3.95;2.10;;;;;;;21.19;47.34;99822.44;5092927;28;20078;-75
2023/09/25 05:27:03;;;;;;;3.25;1.65;;;;;;;21.21;47.38;99825.84;5093614;28;20024;-74
2023/09/25 05:29:29;;;;;;;3.53;2.22;;;;;;;21.17;47.23;99830.50;5092658;28;20462;-75
2023/09/25 05:31:54;;;;;;;3.47;1.95;;;;;;;21.19;47.38;99839.25;5092424;28;20032;-74
2023/09/25 05:34:19;;;;;;;3.28;1.90;;;;;;;21.19;47.54;99839.25;5092094;28;20016;-74
2023/09/25 05:36:45;;;;;;;4.38;2.45;;;;;;;21.20;47.33;99837.41;5092083;28;20055;-75
2023/09/25 05:39:10;;;;;;;3.53;2.03;;;;;;;21.19;47.60;99849.84;5092765;28;20080;-75
2023/09/25 05:41:36;;;;;;;3.42;1.75;;;;;;;21.21;47.53;99840.94;5092475;28;20020;-75
2023/09/25 05:44:02;;;;;;;3.45;1.98;;;;;;;21.21;47.49;99849.75;5092008;28;20502;-75
2023/09/25 05:46:27;;;;;;;4.25;2.58;;;;;;;21.21;47.41;99857.72;5091626;28;20111;-76
2023/09/25 05:48:57;;;;;;;3.42;1.90;;;;;;;21.17;47.62;99853.53;5092608;28;20111;-75
2023/09/25 05:51:22;;;;;;;2.72;1.70;;;;;;;21.20;47.52;99850.69;5092016;28;20024;-75
2023/09/25 05:53:48;;;;;;;3.30;2.00;;;;;;;21.19;47.57;99857.81;5091809;28;20108;-75
2023/09/25 05:56:13;;;;;;;3.15;1.83;;;;;;;21.18;47.55;99858.75;5091726;28;20500;-75
2023/09/25 05:58:38;;;;;;;3.65;1.88;;;;;;;21.17;47.53;99856.19;5092419;28;20031;-75
2023/09/25 06:01:05;;;;;;;2.92;1.73;;;;;;;21.16;47.53;99860.63;5092034;28;20031;-76
2023/09/25 06:03:31;;;;;;;3.60;1.90;;;;;;;21.17;47.53;99859.69;5091848;28;20411;-75
2023/09/25 06:05:57;;;;;;;2.95;1.60;;;;;;;21.17;47.58;99867.63;5092032;28;20028;-74
2023/09/25 06:08:23;;;;;;;2.70;1.65;;;;;;;21.19;47.50;99873.75;5092188;28;20024;-75
2023/09/25 06:10:50;;;;;;;3.50;2.08;;;;;;;21.17;47.54;99877.41;5092358;28;20400;-75
2023/09/25 06:13:16;;;;;;;3.47;1.98;;;;;;;21.15;47.58;99874.84;5092453;28;20085;-75
2023/09/25 06:15:42;;;;;;;3.38;1.90;;;;;;;21.12;47.66;99885.59;5091549;28;20020;-75
2023/09/25 06:18:09;;;;;;;3.65;1.90;;;;;;;21.11;47.60;99880.41;5092303;28;20107;-74
2023/09/25 06:20:39;;;;;;;3.50;1.90;;;;;;;21.09;47.64;99880.50;5092044;28;20095;-75
2023/09/25 06:23:05;;;;;;;3.30;1.70;;;;;;;21.10;47.49;99887.50;5091925;28;20028;-75
2023/09/25 06:25:32;;;;;;;4.35;1.90;;;;;;;21.11;47.46;99885.72;5092047;28;20020;-75
2023/09/25 06:27:57;;;;;;;3.58;2.10;;;;;;;21.11;47.10;99891.84;5092059;28;20028;-75
2023/09/25 06:30:23;;;;;;;3.10;1.85;;;;;;;21.11;47.27;99891.84;5090259;28;20111;-75
2023/09/25 06:32:49;;;;;;;3.92;2.13;;;;;;;21.12;47.36;99884.78;5091919;28;20020;-75
2023/09/25 06:35:15;;;;;;;4.47;2.10;;;;;;;21.13;47.38;99887.34;5092162;28;20029;-75
2023/09/25 06:37:40;;;;;;;3.50;1.90;;;;;;;21.13;47.33;99886.47;5092007;28;20026;-75
2023/09/25 06:40:09;;;;;;;4.05;1.85;;;;;;;21.12;47.37;99885.59;5091557;28;20411;-74
2023/09/25 06:42:38;;;;;;;3.47;1.98;;;;;;;21.12;47.25;99882.97;5090563;28;20024;-74
2023/09/25 06:45:04;;;;;;;3.60;2.13;;;;;;;21.12;47.08;99890.91;5090237;28;20028;-74
2023/09/25 06:47:32;;;;;;;3.17;1.90;;;;;;;21.11;47.04;99891.84;5094516;28;20074;-74
2023/09/25 06:49:57;;;;;;;3.95;1.90;;;;;;;21.12;47.42;99896.22;5095803;28;20077;-74
2023/09/25 06:52:22;;;;;;;4.13;2.22;;;;;;;21.10;47.21;99898.13;5095643;28;20395;-75
2023/09/25 06:54:48;;;;;;;3.75;2.10;;;;;;;21.11;47.12;99894.50;5095780;28;20028;-74
2023/09/25 06:57:13;;;;;;;3.65;2.30;;;;;;;21.12;47.04;99896.22;5095708;28;20027;-73
2023/09/25 06:59:39;;;;;;;3.95;2.20;;;;;;;21.10;47.06;99887.50;5095425;28;20590;-74
2023/09/25 07:02:05;;;;;;;3.47;1.92;;;;;;;21.11;47.32;99889.22;5095502;28;20023;-74
2023/09/25 07:04:31;;;;;;;4.32;2.13;;;;;;;21.11;47.42;99893.69;5113502;28;20048;-74
2023/09/25 07:06:56;;;;;;;5.18;2.35;;;;;;;21.12;47.10;99896.22;5109567;28;20027;-73
2023/09/25 07:09:22;;;;;;;4.43;2.30;;;;;;;21.11;47.17;99899.81;5095468;28;20016;-74
2023/09/25 07:11:48;;;;;;;3.53;2.00;;;;;;;21.12;47.10;99904.19;5095352;28;20158;-74
2023/09/25 07:14:14;;;;;;;3.50;2.20;;;;;;;21.11;46.97;99897.16;5094812;28;20012;-74
2023/09/25 07:16:40;;;;;;;3.67;2.35;;;;;;;21.13;47.13;99891.78;5095248;28;20024;-74
2023/09/25 07:19:08;;;;;;;4.22;2.28;;;;;;;21.12;47.06;99904.19;5095196;28;20032;-74
2023/09/25 07:21:35;;;;;;;4.57;2.53;;;;;;;21.13;47.16;99907.72;5095262;28;20020;-74
2023/09/25 07:24:01;;;;;;;3.85;2.17;;;;;;;21.14;47.29;99898.81;5095220;28;20020;-74
2023/09/25 07:26:26;;;;;;;4.47;2.35;;;;;;;21.13;47.28;99903.28;5094806;28;20020;-74
2023/09/25 07:28:52;;;;;;;3.60;2.22;;;;;;;21.12;47.21;99896.22;5093819;28;20027;-74
2023/09/25 07:31:23;;;;;;;4.30;2.28;;;;;;;21.13;47.11;99908.56;5095272;28;20016;-74
2023/09/25 07:33:50;;;;;;;3.50;2.10;;;;;;;21.13;47.05;99913.88;5094857;28;20024;-73
2023/09/25 07:36:20;;;;;;;4.30;2.03;;;;;;;21.15;47.33;99905.81;5094747;28;20024;-74
2023/09/25 07:38:46;;;;;;;4.30;2.30;;;;;;;21.12;47.00;99912.16;5094835;28;20025;-74
2023/09/25 07:41:12;;;;;;;4.82;2.47;;;;;;;21.09;47.01;99901.72;5094459;28;20111;-73
2023/09/25 07:43:41;;;;;;;3.85;2.10;;;;;;;21.12;47.05;99909.50;5094870;28;20443;-74
2023/09/25 07:46:07;;;;;;;4.22;2.33;;;;;;;21.11;47.27;99909.59;5094718;28;20133;-74
2023/09/25 07:48:37;;;;;;;4.15;2.25;;;;;;;21.09;47.13;99901.72;5094575;28;20046;-74
2023/09/25 07:51:03;;;;;;;4.25;2.60;;;;;;;21.10;47.20;99907.88;5094486;28;20020;-74
2023/09/25 07:53:29;;;;;;;4.05;2.30;;;;;;;21.06;47.42;99907.16;5094688;28;20055;-74
2023/09/25 07:55:54;;;;;;;4.05;2.40;;;;;;;21.07;47.35;99908.91;5094290;28;20048;-74
2023/09/25 07:58:20;;;;;;;3.90;2.03;;;;;;;21.09;47.14;99907.03;5094255;28;20499;-74
2023/09/25 08:00:48;;;;;;;3.75;2.17;;;;;;;21.05;47.28;99909.00;5095244;28;20488;-74
2023/09/25 08:03:16;;;;;;;3.95;2.40;;;;;;;21.06;47.35;99913.34;5104455;28;20383;-74
2023/09/25 08:05:42;;;;;;;4.50;2.42;;;;;;;21.07;47.23;99911.56;5094495;28;20057;-74
2023/09/25 08:08:11;;;;;;;4.30;2.35;;;;;;;21.08;47.46;99915.94;5094391;28;20040;-74
2023/09/25 08:10:37;;;;;;;3.40;2.15;;;;;;;21.10;47.27;99914.03;5093870;28;20496;-74
2023/09/25 08:13:03;;;;;;;4.90;2.60;;;;;;;21.08;47.13;99921.22;5094268;28;20024;-73
2023/09/25 08:15:29;;;;;;;4.63;2.13;;;;;;;21.10;47.49;99919.34;5094090;28;20024;-74
2023/09/25 08:17:54;;;;;;;4.07;1.88;;;;;;;21.07;47.30;99927.47;5094205;28;20107;-74
2023/09/25 08:20:20;;;;;;;4.43;2.35;;;;;;;21.10;47.35;99926.47;5093868;28;20019;-74
2023/09/25 08:22:48;;;;;;;4.03;2.17;;;;;;;21.09;47.57;99924.72;5092481;28;20109;-74
2023/09/25 08:25:13;;;;;;;4.70;2.30;;;;;;;21.08;47.53;99929.19;5092942;28;20032;-74
2023/09/25 08:27:39;;;;;;;4.43;2.35;;;;;;;21.08;47.58;99918.56;5092614;28;20027;-74
2023/09/25 08:30:06;;;;;;;4.57;2.40;;;;;;;21.10;47.45;99924.66;5093944;28;20191;-74
2023/09/25 08:32:32;;;;;;;3.90;2.28;;;;;;;21.11;47.39;99931.66;5093747;28;20032;-73
2023/09/25 08:34:58;;;;;;;4.78;2.70;;;;;;;21.12;47.56;99928.06;5093825;28;20530;-74
2023/09/25 08:37:24;;;;;;;4.30;2.40;;;;;;;21.13;47.64;99937.75;5093540;28;20024;-74
2023/09/25 08:39:52;;;;;;;4.57;2.65;;;;;;;21.13;47.56;99937.75;5093332;28;20028;-74
2023/09/25 08:42:21;;;;;;;4.05;2.22;;;;;;;21.16;47.61;99929.63;5093620;28;20499;-75
2023/09/25 08:44:52;;;;;;;4.50;2.40;;;;;;;21.17;47.59;99935.78;5093647;28;20402;-74
2023/09/25 08:47:22;;;;;;;4.35;2.20;;;;;;;21.16;47.54;99934.09;5093547;28;20028;-74
2023/09/25 08:49:51;;;;;;;3.92;2.10;;;;;;;21.17;47.59;99936.63;5093388;28;20446;-74
2023/09/25 08:52:18;;;;;;;4.40;2.25;;;;;;;21.18;47.44;99933.06;5093564;28;20024;-74
2023/09/25 08:54:44;;;;;;;3.97;1.80;;;;;;;21.18;47.89;99938.38;5092966;28;20036;-74
2023/09/25 08:57:12;;;;;;;4.13;2.20;;;;;;;21.21;47.60;99928.53;5093147;28;20039;-74
2023/09/25 08:59:40;;;;;;;4.07;2.17;;;;;;;21.21;47.46;99931.19;5093216;28;20024;-74
2023/09/25 09:02:09;;;;;;;4.03;2.00;;;;;;;21.19;47.51;99926.81;5093423;28;20024;-74
2023/09/25 09:04:37;;;;;;;5.07;2.20;;;;;;;21.19;47.71;99926.81;5092777;28;20055;-74
2023/09/25 09:07:09;;;;;;;4.43;2.38;;;;;;;21.21;47.67;99933.81;5095511;28;20062;-74
2023/09/25 09:09:35;;;;;;;4.55;2.35;;;;;;;21.24;47.56;99936.31;5097277;28;20027;-73
2023/09/25 09:12:02;;;;;;;4.00;2.08;;;;;;;21.26;47.44;99929.97;5096736;28;20023;-74
2023/09/25 09:14:43;;;;;;;3.80;1.98;;;;;;;21.28;47.49;99932.53;5112673;28;20049;-74
2023/09/25 09:17:11;;;;;;;4.45;2.42;;;;;;;21.27;47.72;99936.16;5093149;28;20095;-74
2023/09/25 09:19:53;;;;;;;3.75;2.00;;;;;;;21.28;47.62;99932.53;5093079;28;20396;-73
2023/09/25 09:22:21;;;;;;;3.88;2.00;;;;;;;21.31;47.41;99932.41;5092666;28;20039;-74
2023/09/25 09:24:47;;;;;;;4.05;2.03;;;;;;;21.33;47.50;99930.50;5092747;28;20059;-73
2023/09/25 09:27:14;;;;;;;3.80;2.10;;;;;;;21.36;47.45;99930.31;5092757;28;20070;-74
2023/09/25 09:29:43;;;;;;;4.45;2.17;;;;;;;21.38;47.44;99933.75;5092863;28;20073;-74
2023/09/25 09:32:09;;;;;;;4.57;2.10;;;;;;;21.41;47.51;99938.88;5092870;28;20024;-74
2023/09/25 09:34:36;;;;;;;4.55;2.47;;;;;;;21.43;47.33;99942.34;5092821;28;20107;-74
2023/09/25 09:37:02;;;;;;;5.30;2.00;;;;;;;21.44;47.32;99944.03;5092418;28;20404;-74
2023/09/25 09:39:37;;;;;;;4.50;2.25;;;;;;;21.45;47.38;99937.78;5092143;28;20035;-74
2023/09/25 09:42:05;;;;;;;4.18;2.45;;;;;;;21.50;47.39;99934.03;5092718;28;20107;-74
2023/09/25 09:44:32;;;;;;;4.50;2.42;;;;;;;21.49;47.40;99940.28;5092376;28;20472;-74
2023/09/25 09:47:02;;;;;;;4.05;1.92;;;;;;;21.52;47.14;99924.16;5092461;28;20471;-74
2023/09/25 09:49:30;;;;;;;4.18;2.00;;;;;;;21.53;47.52;99925.88;5092568;28;20123;-73
2023/09/25 09:51:57;;;;;;;4.25;2.17;;;;;;;21.53;47.18;99924.09;5091972;28;20368;-73
2023/09/25 09:54:23;;;;;;;4.15;2.17;;;;;;;21.55;47.26;99921.34;5092377;28;20064;-73
2023/09/25 09:56:49;;;;;;;4.35;2.10;;;;;;;21.56;47.40;99925.72;5092505;28;20098;-74
2023/09/25 09:59:15;;;;;;;5.07;2.22;;;;;;;21.55;47.29;99916.03;5091082;28;20465;-74
2023/09/25 10:01:46;;;;;;;3.20;2.00;;;;;;;21.54;47.53;99916.97;5092263;28;20543;-74
2023/09/25 10:04:13;;;;;;;2.88;1.80;;;;;;;21.56;47.42;99917.75;5092135;28;20052;-73
2023/09/25 10:06:50;;;;;;;3.72;2.13;;;;;;;21.57;47.31;99920.31;5091834;28;20024;-74
2023/09/25 10:09:15;;;;;;;3.60;2.10;;;;;;;21.57;47.48;99912.34;5091958;28;20059;-74
2023/09/25 10:11:43;;;;;;;3.38;1.88;;;;;;;21.59;47.51;99918.44;5092488;28;20583;-74
2023/09/25 10:14:09;;;;;;;4.13;2.00;;;;;;;21.59;47.41;99920.22;5092225;28;20391;-74
2023/09/25 10:17:01;;;;;;;3.78;1.85;;;;;;;21.60;47.33;99919.28;5092222;28;20025;-74
2023/09/25 10:19:33;;;;;;;4.90;2.13;;;;;;;21.63;47.49;99920.88;5070468;28;20102;-74
2023/09/25 10:22:06;;;;;;;4.28;2.13;;;;;;;21.63;47.59;99911.13;5077365;28;20025;-74
2023/09/25 10:24:33;;;;;;;4.40;2.00;;;;;;;21.65;47.43;99909.25;5108803;28;20023;-74
2023/09/25 10:26:59;;;;;;;4.07;2.13;;;;;;;21.67;47.38;99903.84;5107354;28;20020;-74
2023/09/25 10:29:24;;;;;;;4.32;2.20;;;;;;;21.69;47.65;99905.47;5095996;28;20020;-74
2023/09/25 10:31:50;;;;;;;4.15;2.35;;;;;;;21.71;47.37;99897.47;5096010;28;20024;-74
2023/09/25 10:34:16;;;;;;;4.40;2.25;;;;;;;21.72;47.24;99896.50;5096105;28;20031;-74
2023/09/25 10:36:47;;;;;;;4.70;1.80;;;;;;;21.75;47.31;99892.81;5095754;28;20487;-74
2023/09/25 10:39:17;;;;;;;3.72;2.03;;;;;;;21.76;47.44;99890.09;5095905;28;20024;-74
2023/09/25 10:41:45;;;;;;;3.17;1.83;;;;;;;21.78;47.31;99890.84;5096049;28;20059;-74
2023/09/25 10:44:11;;;;;;;3.28;1.80;;;;;;;21.78;47.21;99884.69;5095824;28;20027;-74
2023/09/25 10:46:37;;;;;;;3.03;1.80;;;;;;;21.81;47.30;99876.53;5096093;28;20020;-74
2023/09/25 10:49:03;;;;;;;3.17;1.80;;;;;;;21.82;47.30;99879.09;5095890;28;20461;-74
2023/09/25 10:51:28;;;;;;;3.80;2.17;;;;;;;21.83;47.30;99879.94;5095598;28;20099;-73
2023/09/25 10:53:54;;;;;;;3.20;1.63;;;;;;;21.83;47.33;99886.13;5095723;28;20054;-74
2023/09/25 10:56:19;;;;;;;3.58;2.03;;;;;;;21.86;47.38;99882.44;5094439;28;20024;-74
2023/09/25 10:58:50;;;;;;;3.90;2.10;;;;;;;21.86;47.29;99879.78;5093967;28;20028;-75
2023/09/25 11:01:22;;;;;;;3.88;1.98;;;;;;;21.89;47.30;99881.41;5095613;28;20100;-74
2023/09/25 11:03:47;;;;;;;3.17;1.73;;;;;;;21.90;47.30;99881.31;5081435;28;20416;-73
2023/09/25 11:06:13;;;;;;;4.65;2.28;;;;;;;21.90;47.18;99876.00;5093754;28;20028;-73
2023/09/25 11:08:38;;;;;;;3.58;1.90;;;;;;;21.92;47.31;99874.09;5095592;28;20035;-74
2023/09/25 11:11:04;;;;;;;4.10;2.22;;;;;;;21.94;47.29;99874.88;5095285;28;20027;-73
2023/09/25 11:13:30;;;;;;;3.80;1.90;;;;;;;21.94;47.35;99872.22;5095420;28;20024;-74
2023/09/25 11:15:56;;;;;;;2.85;1.70;;;;;;;21.97;47.46;99871.16;5095344;28;20032;-74
2023/09/25 11:18:21;;;;;;;3.50;1.90;;;;;;;21.97;47.21;99865.84;5095055;28;20028;-74
2023/09/25 11:20:48;;;;;;;3.63;1.95;;;;;;;21.98;47.09;99865.78;5095204;28;20024;-73
2023/09/25 11:23:15;;;;;;;3.25;1.80;;;;;;;22.00;47.26;99871.00;5094931;28;20024;-74
2023/09/25 11:25:44;;;;;;;4.40;1.83;;;;;;;22.00;47.22;99866.53;5093913;28;20383;-74
2023/09/25 11:28:20;;;;;;;4.47;2.40;;;;;;;22.02;47.30;99866.44;5095196;28;20099;-74
2023/09/25 11:30:46;;;;;;;3.50;1.88;;;;;;;22.02;47.41;99858.47;5094976;28;20032;-73
2023/09/25 11:33:17;;;;;;;3.33;1.65;;;;;;;22.04;47.38;99866.38;5094423;28;20597;-73